Time;durP1;ratioP1;P1;durP2;ratioP2;P2;SDS_P1;SDS_P2;PMS_P1;PMS_P2;Temp;Humidity;BMP_temperature;BMP_pressure;BME280_temperature;BME280_humidity;BME280_pressure;Samples;Min_cycle;Max_cycle;Signal;HPM_P1;HPM_P2
2021/12/02 00:02:27;;;;;;;20.95;11.90;;;2.70;99.90;;;;;;5270000;28;20043;-78
2021/12/02 00:04:57;;;;;;;17.10;10.20;;;2.50;99.90;;;;;;5252078;28;20024;-78
2021/12/02 00:07:28;;;;;;;13.77;8.45;;;2.70;99.90;;;;;;5251800;28;20032;-78
2021/12/02 00:10:00;;;;;;;15.80;9.70;;;2.90;99.90;;;;;;5270012;28;20020;-78
2021/12/02 00:12:31;;;;;;;17.88;9.48;;;2.80;99.90;;;;;;5270103;28;20383;-79
2021/12/02 00:15:07;;;;;;;9.52;6.60;;;2.60;99.90;;;;;;5269836;28;20023;-78
2021/12/02 00:17:39;;;;;;;19.02;8.50;;;2.80;99.90;;;;;;5269982;28;20024;-78
2021/12/02 00:23:08;;;;;;;16.13;8.48;;;2.40;99.90;;;;;;5270065;28;20050;-78
2021/12/02 00:25:40;;;;;;;17.25;9.80;;;2.20;99.90;;;;;;5269862;28;20031;-77
2021/12/02 00:28:12;;;;;;;20.52;11.85;;;2.30;99.90;;;;;;5269016;28;20491;-78
2021/12/02 00:30:42;;;;;;;20.23;11.93;;;2.40;99.90;;;;;;5269497;28;20063;-78
2021/12/02 00:33:16;;;;;;;22.58;11.07;;;2.40;99.90;;;;;;5269532;28;20051;-78
2021/12/02 00:35:47;;;;;;;22.25;12.23;;;2.40;99.90;;;;;;5269702;28;20056;-77
2021/12/02 00:38:23;;;;;;;26.17;12.70;;;2.30;99.90;;;;;;5269657;28;20103;-77
2021/12/02 00:40:54;;;;;;;23.08;12.40;;;2.50;99.90;;;;;;5269218;28;20111;-79
2021/12/02 00:43:26;;;;;;;21.13;10.98;;;2.50;99.90;;;;;;5269199;28;20103;-78
2021/12/02 00:45:57;;;;;;;15.55;6.70;;;2.50;99.90;;;;;;5269345;28;20020;-78
2021/12/02 00:48:28;;;;;;;13.68;7.40;;;3.00;99.90;;;;;;5269091;28;20036;-78
2021/12/02 00:50:59;;;;;;;12.07;7.22;;;3.40;99.90;;;;;;5269293;28;20093;-78
2021/12/02 00:53:32;;;;;;;14.38;6.90;;;3.20;99.90;;;;;;5269579;28;20024;-78
2021/12/02 00:56:05;;;;;;;11.15;5.78;;;3.20;99.90;;;;;;5268734;28;20111;-78
2021/12/02 00:58:37;;;;;;;13.70;6.85;;;3.30;99.90;;;;;;5269093;28;20057;-78
2021/12/02 01:01:10;;;;;;;13.13;6.40;;;3.20;99.90;;;;;;5251301;28;20123;-78
2021/12/02 01:03:42;;;;;;;17.52;7.20;;;3.20;99.90;;;;;;5269201;28;20073;-78
2021/12/02 01:06:13;;;;;;;10.55;6.60;;;3.10;99.90;;;;;;5269172;28;20506;-78
2021/12/02 01:08:44;;;;;;;14.98;7.13;;;3.40;99.90;;;;;;5269007;28;20036;-79
2021/12/02 01:11:16;;;;;;;10.70;6.60;;;3.40;99.90;;;;;;5269153;28;20048;-80
2021/12/02 01:13:48;;;;;;;12.25;7.05;;;3.30;99.90;;;;;;5269638;28;20024;-77
2021/12/02 01:16:20;;;;;;;13.70;7.65;;;3.20;99.90;;;;;;5269349;28;20029;-77
2021/12/02 01:18:51;;;;;;;14.65;7.40;;;3.30;99.90;;;;;;5269099;28;20097;-78
2021/12/02 01:21:25;;;;;;;15.50;6.90;;;3.40;99.90;;;;;;5269003;28;20020;-78
2021/12/02 01:24:01;;;;;;;15.82;7.15;;;3.50;99.90;;;;;;5268948;28;20028;-77
2021/12/02 01:26:34;;;;;;;12.25;6.28;;;3.40;99.90;;;;;;5268999;28;20029;-78
2021/12/02 01:29:05;;;;;;;17.50;6.93;;;3.60;99.90;;;;;;5268849;28;20047;-78
2021/12/02 01:31:36;;;;;;;12.43;7.00;;;3.50;99.90;;;;;;5269162;28;20060;-78
2021/12/02 01:34:08;;;;;;;8.63;5.68;;;3.40;99.90;;;;;;5268859;28;20020;-78
2021/12/02 01:36:41;;;;;;;10.02;6.18;;;3.40;99.90;;;;;;5268875;28;20379;-78
2021/12/02 01:39:12;;;;;;;24.80;8.60;;;3.80;99.90;;;;;;5268790;28;20039;-77
2021/12/02 01:41:54;;;;;;;128.55;68.40;;;4.40;99.90;;;;;;5268849;28;20176;-78
2021/12/02 01:44:28;;;;;;;15.23;8.93;;;4.80;99.90;;;;;;5269143;28;20475;-80
2021/12/02 01:47:00;;;;;;;13.80;8.40;;;4.10;99.90;;;;;;5268872;28;20032;-77
2021/12/02 01:49:36;;;;;;;16.40;9.93;;;3.70;99.90;;;;;;5268718;28;20508;-78
2021/12/02 01:52:11;;;;;;;24.33;13.75;;;3.60;99.90;;;;;;5268804;28;20028;-77
2021/12/02 01:54:46;;;;;;;26.20;12.77;;;3.70;99.90;;;;;;5269964;28;20028;-77
2021/12/02 01:57:40;;;;;;;27.80;14.55;;;3.60;99.90;;;;;;5271758;28;20083;-77
2021/12/02 02:00:19;;;;;;;25.58;13.35;;;3.60;99.90;;;;;;5272426;28;20028;-77
2021/12/02 02:02:50;;;;;;;14.25;6.82;;;3.70;99.90;;;;;;5272799;28;20024;-77
2021/12/02 02:05:33;;;;;;;73.80;34.17;;;4.60;99.90;;;;;;5272436;28;20020;-78
2021/12/02 02:08:22;;;;;;;71.70;27.60;;;3.50;99.90;;;;;;5272401;28;20036;-78
2021/12/02 02:11:03;;;;;;;11.02;6.63;;;3.50;99.90;;;;;;5271998;28;20016;-80
2021/12/02 02:13:43;;;;;;;;;;;5.00;99.90;;;;;;5272618;28;20024;-78
2021/12/02 02:16:17;;;;;;;;;;;4.40;99.90;;;;;;5254296;28;20416;-80
2021/12/02 02:18:52;;;;;;;12.90;6.88;;;4.00;99.90;;;;;;5272199;28;19911;-81
2021/12/02 02:21:24;;;;;;;19.92;11.70;;;4.10;99.90;;;;;;5272026;28;20082;-77
2021/12/02 02:23:58;;;;;;;33.30;17.33;;;4.00;99.90;;;;;;5272577;28;20028;-77
2021/12/02 02:26:36;;;;;;;12.80;6.78;;;4.30;99.90;;;;;;5272188;28;20042;-78
2021/12/02 02:29:10;;;;;;;64.72;26.38;;;4.50;99.90;;;;;;5272049;28;20379;-78
2021/12/02 02:31:43;;;;;;;46.53;19.83;;;4.20;99.90;;;;;;5272093;28;20058;-77
2021/12/02 02:34:14;;;;;;;50.80;23.77;;;4.30;99.90;;;;;;5272051;28;20459;-77
2021/12/02 02:36:56;;;;;;;19.50;10.32;;;4.50;99.90;;;;;;5271640;28;20021;-76
2021/12/02 02:39:29;;;;;;;52.47;19.80;;;4.60;99.90;;;;;;5271718;28;20371;-78
2021/12/02 02:42:05;;;;;;;42.53;21.50;;;4.90;99.90;;;;;;5271607;28;20069;-77
2021/12/02 02:44:36;;;;;;;25.25;10.90;;;4.60;99.90;;;;;;5271883;28;20366;-78
2021/12/02 02:47:07;;;;;;;16.05;7.22;;;4.70;99.90;;;;;;5271428;28;20497;-77
2021/12/02 02:49:38;;;;;;;35.58;15.70;;;5.20;99.90;;;;;;5271483;28;20020;-78
2021/12/02 02:52:09;;;;;;;23.05;11.52;;;4.60;99.90;;;;;;5272256;28;20020;-77
2021/12/02 02:54:40;;;;;;;29.30;13.15;;;4.80;99.90;;;;;;5271807;28;20523;-78
2021/12/02 02:57:14;;;;;;;20.88;9.65;;;5.00;99.90;;;;;;5270985;28;20182;-77
2021/12/02 03:00:02;;;;;;;44.33;18.98;;;5.70;99.90;;;;;;5271187;28;20030;-77
2021/12/02 03:02:53;;;;;;;25.95;10.57;;;5.30;99.90;;;;;;5271210;28;20085;-78
2021/12/02 03:06:38;;;;;;;20.67;8.80;;;5.50;99.90;;;;;;5271263;28;20032;-77
2021/12/02 03:08:42;;;;;;;12.88;5.88;;;5.50;99.90;;;;;;5253021;28;20546;-77
2021/12/02 03:11:13;;;;;;;32.17;13.07;;;6.30;99.90;;;;;;5271055;28;20208;-77
2021/12/02 03:13:50;;;;;;;17.80;7.18;;;5.40;99.90;;;;;;5271284;28;20016;-77
2021/12/02 03:19:24;;;;;;;15.13;5.95;;;6.00;99.90;;;;;;5253498;28;20063;-78
2021/12/02 03:21:56;;;;;;;14.85;8.48;;;6.90;99.90;;;;;;5271174;28;20039;-77
2021/12/02 03:24:27;;;;;;;14.70;5.75;;;6.00;99.90;;;;;;5270984;28;20016;-77
2021/12/02 03:26:58;;;;;;;18.10;8.60;;;6.10;99.90;;;;;;5270574;28;20556;-77
2021/12/02 03:29:29;;;;;;;21.83;5.70;;;6.30;99.90;;;;;;5270715;28;20525;-77
2021/12/02 03:32:00;;;;;;;17.90;6.82;;;6.30;99.90;;;;;;5270600;28;20078;-78
2021/12/02 03:34:32;;;;;;;22.25;9.05;;;6.20;99.90;;;;;;5270535;28;20031;-77
2021/12/02 03:37:03;;;;;;;31.70;14.68;;;6.30;99.90;;;;;;5270687;28;20028;-78
2021/12/02 03:39:34;;;;;;;23.73;10.57;;;6.10;99.90;;;;;;5270623;28;20028;-77
2021/12/02 03:42:06;;;;;;;8.70;4.72;;;6.30;99.90;;;;;;5252582;28;20035;-78
2021/12/02 03:45:05;;;;;;;13.13;5.78;;;6.70;99.90;;;;;;5269954;28;20115;-77
2021/12/02 03:47:36;;;;;;;39.33;20.15;;;7.10;99.90;;;;;;5270426;28;20114;-77
2021/12/02 03:50:08;;;;;;;11.05;5.28;;;7.20;99.90;;;;;;5270709;28;20416;-77
2021/12/02 03:52:38;;;;;;;15.73;6.75;;;7.10;99.90;;;;;;5270523;28;20111;-77
2021/12/02 03:55:09;;;;;;;14.05;4.80;;;7.00;99.90;;;;;;5270033;28;20126;-76
2021/12/02 03:57:40;;;;;;;37.58;16.73;;;7.60;99.90;;;;;;5269850;28;20048;-77
2021/12/02 04:00:11;;;;;;;10.32;4.80;;;7.50;99.90;;;;;;5270074;28;20020;-76
2021/12/02 04:02:42;;;;;;;16.27;6.70;;;7.50;99.90;;;;;;5270112;28;20392;-77
2021/12/02 04:05:13;;;;;;;9.57;5.63;;;7.80;99.90;;;;;;5270186;28;20103;-77
2021/12/02 04:07:44;;;;;;;17.45;5.03;;;8.00;99.90;;;;;;5269932;28;20035;-77
2021/12/02 04:10:15;;;;;;;13.85;6.20;;;7.90;99.90;;;;;;5270390;28;20043;-78
2021/12/02 04:13:06;;;;;;;12.43;5.25;;;7.80;99.90;;;;;;5269785;28;20032;-77
2021/12/02 04:15:40;;;;;;;13.35;5.15;;;8.00;99.90;;;;;;5269732;28;20032;-77
2021/12/02 04:18:11;;;;;;;28.20;12.93;;;7.70;99.90;;;;;;5269501;28;20081;-77
2021/12/02 04:20:41;;;;;;;11.57;4.18;;;7.80;99.90;;;;;;5269773;28;20016;-77
2021/12/02 04:23:12;;;;;;;12.13;5.38;;;7.80;99.90;;;;;;5270078;28;20020;-77
2021/12/02 04:25:43;;;;;;;9.68;4.68;;;8.00;99.90;;;;;;5269490;28;20024;-77
2021/12/02 04:28:14;;;;;;;10.85;4.13;;;7.90;99.90;;;;;;5269293;28;20043;-76
2021/12/02 04:30:45;;;;;;;11.35;4.03;;;8.00;99.90;;;;;;5269992;28;20047;-77
2021/12/02 04:33:16;;;;;;;8.63;4.53;;;8.00;99.90;;;;;;5269588;28;20035;-77
2021/12/02 04:35:47;;;;;;;27.27;13.98;;;8.10;99.90;;;;;;5269619;28;20447;-77
2021/12/02 04:38:18;;;;;;;7.40;3.97;;;7.90;99.90;;;;;;5269152;28;20031;-77
2021/12/02 04:40:48;;;;;;;11.10;4.63;;;8.00;99.90;;;;;;5269331;28;20024;-76
2021/12/02 04:43:20;;;;;;;13.05;4.72;;;8.00;99.90;;;;;;5269817;28;20344;-77
2021/12/02 04:45:52;;;;;;;13.95;5.38;;;7.90;99.90;;;;;;5269767;28;20032;-76
2021/12/02 04:48:23;;;;;;;9.27;3.88;;;7.90;99.90;;;;;;5269281;28;20475;-77
2021/12/02 04:50:54;;;;;;;17.40;9.55;;;8.00;99.90;;;;;;5251227;28;21365;-77
2021/12/02 04:53:24;;;;;;;7.68;3.58;;;8.00;99.90;;;;;;5269370;28;20092;-77
2021/12/02 04:55:55;;;;;;;19.20;9.00;;;8.10;99.90;;;;;;5269423;28;20105;-77
2021/12/02 04:58:26;;;;;;;13.98;5.07;;;8.00;99.90;;;;;;5269106;28;20055;-78
2021/12/02 05:00:58;;;;;;;9.93;5.10;;;8.00;99.90;;;;;;5269104;28;20073;-77
2021/12/02 05:03:29;;;;;;;19.33;6.63;;;8.00;99.90;;;;;;5269470;28;20017;-76
2021/12/02 05:06:00;;;;;;;16.75;6.07;;;8.10;99.90;;;;;;5269742;28;20035;-76
2021/12/02 05:08:31;;;;;;;17.20;7.40;;;8.20;99.90;;;;;;5269529;28;20032;-77
2021/12/02 05:11:01;;;;;;;16.38;5.97;;;8.10;99.90;;;;;;5269537;28;20021;-77
2021/12/02 05:13:32;;;;;;;11.35;4.85;;;8.20;99.90;;;;;;5269708;28;20354;-76
2021/12/02 05:16:03;;;;;;;15.57;6.70;;;8.20;99.90;;;;;;5251119;28;20028;-78
2021/12/02 05:18:34;;;;;;;43.17;20.02;;;8.20;99.90;;;;;;5269722;28;20459;-76
2021/12/02 05:21:05;;;;;;;14.60;6.22;;;8.10;99.90;;;;;;5269475;28;20044;-77
2021/12/02 05:23:36;;;;;;;16.55;5.38;;;8.10;99.90;;;;;;5274216;28;20031;-80
2021/12/02 05:26:07;;;;;;;12.50;5.20;;;8.20;99.90;;;;;;5287812;28;20035;-82
2021/12/02 05:28:38;;;;;;;19.20;7.53;;;8.30;99.90;;;;;;5289307;28;20039;-78
2021/12/02 05:31:09;;;;;;;29.88;10.63;;;8.20;99.90;;;;;;5291759;28;20168;-78
2021/12/02 05:33:39;;;;;;;14.38;5.70;;;8.20;99.90;;;;;;5293787;28;20412;-80
2021/12/02 05:36:10;;;;;;;15.35;5.43;;;8.30;99.90;;;;;;5293711;28;20024;-78
2021/12/02 05:38:41;;;;;;;11.48;5.93;;;8.50;99.90;;;;;;5293625;28;20023;-79
2021/12/02 05:41:14;;;;;;;11.30;5.05;;;8.40;99.90;;;;;;5293568;28;20488;-79
2021/12/02 05:43:45;;;;;;;10.48;5.18;;;8.40;99.90;;;;;;5293733;28;20015;-82
2021/12/02 05:46:16;;;;;;;17.25;7.35;;;8.40;99.90;;;;;;5293673;28;20073;-77
2021/12/02 05:48:47;;;;;;;22.88;11.40;;;8.60;99.90;;;;;;5293939;28;20027;-78
2021/12/02 05:51:18;;;;;;;14.52;5.55;;;8.50;99.90;;;;;;5293808;28;20478;-79
2021/12/02 05:53:49;;;;;;;16.58;6.80;;;8.70;99.90;;;;;;5293523;28;20030;-79
2021/12/02 05:56:20;;;;;;;16.48;6.35;;;8.60;99.90;;;;;;5293223;28;20036;-78
2021/12/02 05:58:51;;;;;;;28.42;11.18;;;8.60;99.90;;;;;;5293565;28;20356;-78
2021/12/02 06:01:23;;;;;;;24.33;9.55;;;8.60;99.90;;;;;;5293289;28;20031;-78
2021/12/02 06:03:53;;;;;;;25.08;9.00;;;8.50;99.90;;;;;;5275642;28;20024;-77
2021/12/02 06:06:26;;;;;;;14.45;5.45;;;8.70;99.90;;;;;;5271961;28;20024;-78
2021/12/02 06:08:57;;;;;;;18.10;6.38;;;8.70;99.90;;;;;;5271725;28;20039;-77
2021/12/02 06:11:28;;;;;;;14.93;5.72;;;8.80;99.90;;;;;;5271961;28;20356;-80
2021/12/02 06:13:59;;;;;;;20.70;7.07;;;8.80;99.90;;;;;;5253859;28;20445;-78
2021/12/02 06:16:30;;;;;;;14.75;5.28;;;8.80;99.90;;;;;;5272090;28;20039;-78
2021/12/02 06:19:01;;;;;;;11.25;5.38;;;8.90;99.90;;;;;;5271690;28;20024;-78
2021/12/02 06:21:33;;;;;;;21.02;5.75;;;9.00;99.90;;;;;;5271653;28;20025;-78
2021/12/02 06:24:05;;;;;;;9.60;4.63;;;9.20;99.90;;;;;;5285286;28;20386;-78
2021/12/02 06:26:37;;;;;;;13.35;5.82;;;9.30;99.90;;;;;;5292554;28;20028;-78
2021/12/02 06:29:08;;;;;;;14.07;4.65;;;9.50;99.90;;;;;;5292571;28;20030;-78
2021/12/02 06:31:39;;;;;;;12.63;4.50;;;9.60;99.90;;;;;;5292753;28;20023;-78
2021/12/02 06:34:10;;;;;;;12.68;4.65;;;9.80;99.90;;;;;;5292616;28;20747;-77
2021/12/02 06:36:43;;;;;;;9.70;3.88;;;9.90;99.90;;;;;;5292394;28;20077;-77
2021/12/02 06:39:14;;;;;;;9.75;4.72;;;10.00;99.90;;;;;;5292488;28;20103;-78
2021/12/02 06:41:44;;;;;;;11.65;3.95;;;10.00;99.90;;;;;;5291994;28;20562;-78
2021/12/02 06:44:15;;;;;;;17.52;4.53;;;10.10;99.90;;;;;;5292496;28;20019;-78
2021/12/02 06:46:46;;;;;;;13.63;4.90;;;10.10;99.90;;;;;;5292316;28;20024;-77
2021/12/02 06:49:17;;;;;;;23.25;8.80;;;10.30;99.90;;;;;;5292240;28;20492;-77
2021/12/02 06:51:48;;;;;;;10.70;4.00;;;10.40;99.90;;;;;;5292141;28;20033;-77
2021/12/02 06:54:19;;;;;;;17.27;4.38;;;10.50;99.90;;;;;;5292031;28;20026;-77
2021/12/02 06:56:50;;;;;;;11.98;4.43;;;10.50;99.90;;;;;;5292022;28;20047;-78
2021/12/02 06:59:21;;;;;;;11.13;3.45;;;10.70;99.90;;;;;;5292118;28;20366;-78
2021/12/02 07:01:57;;;;;;;11.45;3.55;;;10.80;99.90;;;;;;5292369;28;20023;-79
2021/12/02 07:04:31;;;;;;;10.68;3.70;;;10.90;99.90;;;;;;5292120;28;20019;-78
2021/12/02 07:07:02;;;;;;;10.63;3.60;;;11.00;99.90;;;;;;5291838;28;20360;-78
2021/12/02 07:09:33;;;;;;;9.05;2.50;;;11.20;99.90;;;;;;5291814;28;20036;-79
2021/12/02 07:12:04;;;;;;;8.02;3.30;;;11.30;99.90;;;;;;5291698;28;20076;-79
2021/12/02 07:15:17;;;;;;;15.15;3.30;;;11.30;99.90;;;;;;5292023;28;20035;-78
2021/12/02 07:17:54;;;;;;;11.05;3.30;;;11.30;99.90;;;;;;5291724;28;20031;-79
2021/12/02 07:20:30;;;;;;;12.13;4.10;;;11.30;99.90;;;;;;5291795;28;20106;-79
2021/12/02 07:23:02;;;;;;;14.23;3.85;;;11.40;99.90;;;;;;5291380;28;20110;-78
2021/12/02 07:25:33;;;;;;;11.70;4.00;;;11.50;99.90;;;;;;5291474;28;20463;-77
2021/12/02 07:28:04;;;;;;;10.65;3.75;;;11.40;99.90;;;;;;5291354;28;20043;-79
2021/12/02 07:30:36;;;;;;;10.32;4.05;;;11.60;99.90;;;;;;5291805;28;20343;-79
2021/12/02 07:33:09;;;;;;;9.05;4.30;;;11.70;99.90;;;;;;5291367;28;20037;-78
2021/12/02 07:35:40;;;;;;;11.95;3.53;;;11.70;99.90;;;;;;5291323;28;20032;-78
2021/12/02 07:38:11;;;;;;;7.57;2.95;;;11.80;99.90;;;;;;5291334;28;20032;-78
2021/12/02 07:40:42;;;;;;;10.45;3.67;;;11.90;99.90;;;;;;5291204;28;20022;-79
2021/12/02 07:43:12;;;;;;;9.80;3.05;;;12.00;99.90;;;;;;5291434;28;20073;-78
2021/12/02 07:45:46;;;;;;;7.60;3.22;;;12.10;99.90;;;;;;5290810;28;20530;-77
2021/12/02 07:48:18;;;;;;;9.57;4.07;;;12.30;99.90;;;;;;5291289;28;20036;-78
2021/12/02 07:50:49;;;;;;;10.40;3.00;;;12.00;99.90;;;;;;5291070;28;20027;-78
2021/12/02 07:53:23;;;;;;;9.90;3.22;;;12.30;99.90;;;;;;5290359;28;20501;-78
2021/12/02 07:55:55;;;;;;;9.20;3.50;;;12.20;99.90;;;;;;5290746;28;20039;-77
2021/12/02 07:58:27;;;;;;;7.40;2.97;;;12.30;99.90;;;;;;5290594;28;20123;-77
2021/12/02 08:01:00;;;;;;;12.02;3.83;;;12.50;99.90;;;;;;5290865;28;20046;-78
2021/12/02 08:03:30;;;;;;;8.68;2.90;;;12.50;99.90;;;;;;5290615;28;20032;-78
2021/12/02 08:06:01;;;;;;;9.60;3.88;;;12.50;99.90;;;;;;5290915;28;20032;-78
2021/12/02 08:08:32;;;;;;;10.32;3.25;;;12.90;99.90;;;;;;5290528;28;20055;-78
2021/12/02 08:11:05;;;;;;;8.00;3.20;;;13.20;99.90;;;;;;5290761;28;20020;-77
2021/12/02 08:13:36;;;;;;;10.50;2.85;;;13.00;99.90;;;;;;5290849;28;20153;-78
2021/12/02 08:16:07;;;;;;;16.38;5.50;;;13.00;99.90;;;;;;5290638;28;20023;-77
2021/12/02 08:18:38;;;;;;;13.93;3.08;;;13.40;99.90;;;;;;5287289;27;20019;-78
2021/12/02 08:21:09;;;;;;;16.10;7.60;;;13.30;99.90;;;;;;5269521;28;20039;-78
2021/12/02 08:23:40;;;;;;;9.63;3.25;;;13.90;99.90;;;;;;5279623;28;20023;-79
2021/12/02 08:26:16;;;;;;;7.85;3.97;;;13.40;99.90;;;;;;5290155;28;20532;-78
2021/12/02 08:28:47;;;;;;;9.73;3.05;;;13.60;99.90;;;;;;5290579;28;20436;-79
2021/12/02 08:31:18;;;;;;;14.57;6.63;;;13.60;99.90;;;;;;5290222;28;20020;-78
2021/12/02 08:33:51;;;;;;;9.00;3.95;;;13.90;99.90;;;;;;5290458;28;20495;-78
2021/12/02 08:36:30;;;;;;;10.02;3.17;;;14.00;99.90;;;;;;5290386;28;20016;-77
2021/12/02 08:39:05;;;;;;;7.63;4.32;;;13.80;99.90;;;;;;5290437;28;20407;-78
2021/12/02 08:41:42;;;;;;;11.60;5.63;;;13.70;99.90;;;;;;5290319;28;20406;-78
2021/12/02 08:44:14;;;;;;;5.20;2.25;;;13.90;99.90;;;;;;5272239;28;20115;-79
2021/12/02 08:46:47;;;;;;;11.07;3.20;;;14.10;99.90;;;;;;5289965;28;20026;-78
2021/12/02 08:49:20;;;;;;;11.10;3.35;;;14.00;99.90;;;;;;5290149;28;20111;-78
2021/12/02 08:51:51;;;;;;;5.88;2.20;;;14.00;99.90;;;;;;5289881;28;20047;-79
2021/12/02 08:54:22;;;;;;;10.32;2.65;;;14.00;99.90;;;;;;5289927;28;20114;-78
2021/12/02 08:56:55;;;;;;;6.90;2.47;;;14.40;99.90;;;;;;5289261;28;20136;-78
2021/12/02 08:59:26;;;;;;;11.63;3.40;;;14.10;99.90;;;;;;5289435;28;20027;-78
2021/12/02 09:01:56;;;;;;;6.88;2.58;;;13.90;99.90;;;;;;5289123;28;20399;-78
2021/12/02 09:04:27;;;;;;;6.43;3.35;;;14.50;99.90;;;;;;5292973;28;20028;-78
2021/12/02 09:06:58;;;;;;;7.32;2.13;;;14.40;99.90;;;;;;5285683;28;20032;-75
2021/12/02 09:09:29;;;;;;;6.65;2.70;;;14.10;99.90;;;;;;5293645;28;20030;-78
2021/12/02 09:12:00;;;;;;;6.05;2.03;;;14.00;99.60;;;;;;5277622;28;20475;-77
2021/12/02 09:14:31;;;;;;;6.50;2.55;;;14.30;98.50;;;;;;5290549;28;20030;-77
2021/12/02 09:17:03;;;;;;;7.45;2.28;;;14.50;94.00;;;;;;5273301;28;20050;-77
2021/12/02 09:19:34;;;;;;;7.97;2.10;;;14.60;94.00;;;;;;5290993;28;20485;-76
2021/12/02 09:22:05;;;;;;;8.45;3.55;;;14.50;92.50;;;;;;5278589;28;20054;-76
2021/12/02 09:24:36;;;;;;;7.95;2.28;;;14.70;90.70;;;;;;5274283;28;20027;-76
2021/12/02 09:27:08;;;;;;;5.35;1.85;;;14.90;88.50;;;;;;5293073;28;20424;-76
2021/12/02 09:29:39;;;;;;;9.38;3.85;;;14.90;89.10;;;;;;5254334;28;20131;-76
2021/12/02 09:32:11;;;;;;;8.52;1.70;;;14.40;90.50;;;;;;5280491;28;20107;-77
2021/12/02 09:34:43;;;;;;;5.15;1.92;;;15.60;88.80;;;;;;5287223;28;20016;-76
2021/12/02 09:37:15;;;;;;;5.85;2.28;;;15.80;85.90;;;;;;5284765;28;20054;-76
2021/12/02 09:39:45;;;;;;;12.95;6.15;;;15.00;83.80;;;;;;5288726;28;20074;-74
2021/12/02 09:42:16;;;;;;;5.18;2.55;;;15.00;84.40;;;;;;5278926;28;20035;-77
2021/12/02 09:44:48;;;;;;;5.93;2.00;;;15.00;86.10;;;;;;5290798;27;20103;-78
2021/12/02 09:47:20;;;;;;;4.68;1.83;;;15.20;86.40;;;;;;5293604;28;20118;-77
2021/12/02 09:49:51;;;;;;;5.95;1.85;;;15.40;86.60;;;;;;5293160;28;20712;-78
2021/12/02 09:52:30;;;;;;;7.03;1.98;;;15.00;85.90;;;;;;5292528;28;20073;-78
2021/12/02 09:55:05;;;;;;;5.65;2.50;;;15.00;88.20;;;;;;5293145;28;20028;-78
2021/12/02 09:57:42;;;;;;;7.18;2.10;;;15.20;86.40;;;;;;5287580;28;20086;-77
2021/12/02 10:00:21;;;;;;;14.07;2.55;;;15.60;85.30;;;;;;5278471;28;20352;-77
2021/12/02 10:02:55;;;;;;;7.25;3.17;;;14.80;89.80;;;;;;5292157;28;20034;-75
2021/12/02 10:05:33;;;;;;;9.43;3.72;;;16.10;87.00;;;;;;5293278;28;20040;-75
2021/12/02 10:08:07;;;;;;;9.90;2.97;;;15.80;87.50;;;;;;5276575;28;20059;-75
2021/12/02 10:10:54;;;;;;;11.32;4.38;;;15.00;86.20;;;;;;5283206;28;20028;-75
2021/12/02 10:13:33;;;;;;;21.00;4.07;;;15.10;91.60;;;;;;5287926;28;20031;-75
2021/12/02 10:16:19;;;;;;;11.40;2.65;;;15.40;87.10;;;;;;5289025;28;20051;-75
2021/12/02 10:19:00;;;;;;;7.53;2.63;;;15.80;84.00;;;;;;5292886;28;20027;-74
2021/12/02 10:21:55;;;;;;;4.40;2.28;;;15.40;82.00;;;;;;5291015;27;20047;-75
2021/12/02 10:24:28;;;;;;;4.88;1.70;;;15.20;81.00;;;;;;5289593;28;20031;-75
2021/12/02 10:27:04;;;;;;;3.75;1.60;;;15.10;81.40;;;;;;5286018;28;20074;-76
2021/12/02 10:29:38;;;;;;;5.25;2.63;;;15.00;82.90;;;;;;5292426;28;20440;-75
2021/12/02 10:32:19;;;;;;;11.52;5.40;;;15.00;83.10;;;;;;5292734;28;20031;-75
2021/12/02 10:34:56;;;;;;;21.33;10.45;;;15.60;83.40;;;;;;5292656;28;20027;-75
2021/12/02 10:37:44;;;;;;;13.15;7.05;;;16.00;79.40;;;;;;5292450;28;20019;-75
2021/12/02 10:40:20;;;;;;;7.20;3.40;;;15.80;81.20;;;;;;5292885;28;20023;-75
2021/12/02 10:42:51;;;;;;;11.02;3.03;;;16.10;79.60;;;;;;5292457;28;20036;-75
2021/12/02 10:45:26;;;;;;;12.32;3.72;;;16.90;78.70;;;;;;5292103;28;20029;-75
2021/12/02 10:47:58;;;;;;;8.48;2.45;;;16.40;77.80;;;;;;5292434;28;20431;-75
2021/12/02 10:50:37;;;;;;;9.25;2.58;;;15.70;80.20;;;;;;5292365;28;20356;-75
2021/12/02 10:53:08;;;;;;;7.22;2.00;;;16.00;76.60;;;;;;5291981;28;20031;-75
2021/12/02 10:55:38;;;;;;;7.07;3.03;;;16.00;79.60;;;;;;5292314;28;20093;-75
2021/12/02 10:58:09;;;;;;;9.25;2.58;;;15.90;79.70;;;;;;5291174;28;20081;-75
2021/12/02 11:00:43;;;;;;;14.90;8.82;;;16.20;79.60;;;;;;5291268;28;20023;-75
2021/12/02 11:03:14;;;;;;;4.43;1.80;;;16.00;79.80;;;;;;5292150;28;20047;-75
2021/12/02 11:05:47;;;;;;;5.55;1.58;;;15.80;79.50;;;;;;5273887;28;20058;-75
2021/12/02 11:08:19;;;;;;;8.73;2.50;;;15.50;82.50;;;;;;5291920;28;20114;-76
2021/12/02 11:10:51;;;;;;;8.20;2.20;;;15.90;80.80;;;;;;5291757;28;20027;-75
2021/12/02 11:13:26;;;;;;;5.75;2.83;;;16.40;81.60;;;;;;5291643;28;20074;-75
2021/12/02 11:15:59;;;;;;;6.53;2.35;;;15.90;86.60;;;;;;5291745;28;20015;-75
2021/12/02 11:18:34;;;;;;;5.35;2.05;;;15.50;87.30;;;;;;5291747;28;20040;-75
2021/12/02 11:21:05;;;;;;;4.47;2.20;;;15.80;88.40;;;;;;5291867;28;20078;-75
2021/12/02 11:23:45;;;;;;;8.70;2.72;;;15.90;86.40;;;;;;5291699;28;20020;-77
2021/12/02 11:26:18;;;;;;;7.47;2.10;;;16.40;81.80;;;;;;5291093;28;20110;-75
2021/12/02 11:28:49;;;;;;;6.72;2.17;;;15.60;88.10;;;;;;5290679;28;20114;-76
2021/12/02 11:31:21;;;;;;;6.45;2.47;;;16.10;86.60;;;;;;5291557;28;20437;-77
2021/12/02 11:33:52;;;;;;;7.32;2.72;;;16.00;86.40;;;;;;5291271;28;20031;-77
2021/12/02 11:36:28;;;;;;;6.20;2.08;;;15.70;85.50;;;;;;5291372;28;20437;-76
2021/12/02 11:39:00;;;;;;;5.30;2.75;;;15.90;85.10;;;;;;5291322;28;20044;-77
2021/12/02 11:41:31;;;;;;;8.80;2.53;;;14.60;90.30;;;;;;5291010;28;20027;-77
2021/12/02 11:44:03;;;;;;;5.78;2.50;;;15.70;90.00;;;;;;5291299;28;20502;-77
2021/12/02 11:46:34;;;;;;;6.53;2.35;;;15.60;87.30;;;;;;5288787;28;20024;-77
2021/12/02 11:49:06;;;;;;;4.95;1.92;;;15.50;89.00;;;;;;5290652;28;20043;-76
2021/12/02 11:51:38;;;;;;;5.80;2.35;;;15.50;90.50;;;;;;5290758;28;20020;-76
2021/12/02 11:54:09;;;;;;;6.82;1.85;;;15.90;88.70;;;;;;5290855;28;20026;-77
2021/12/02 11:56:40;;;;;;;6.03;1.88;;;16.10;86.40;;;;;;5290741;28;20050;-76
2021/12/02 11:59:11;;;;;;;12.55;4.47;;;15.70;86.60;;;;;;5290779;28;20027;-75
2021/12/02 12:01:43;;;;;;;7.60;1.75;;;16.00;86.70;;;;;;5290838;28;20098;-76
2021/12/02 12:04:15;;;;;;;6.95;2.50;;;15.90;88.00;;;;;;5290772;28;20107;-76
2021/12/02 12:07:08;;;;;;;4.88;1.48;;;16.00;85.00;;;;;;5290821;28;20024;-76
2021/12/02 12:09:39;;;;;;;6.05;1.77;;;16.50;83.90;;;;;;5290644;28;20027;-76
2021/12/02 12:12:12;;;;;;;8.32;3.20;;;15.60;85.90;;;;;;5290776;28;20027;-76
2021/12/02 12:14:44;;;;;;;6.13;1.92;;;16.30;85.80;;;;;;5290632;28;20106;-76
2021/12/02 12:17:17;;;;;;;7.50;2.00;;;15.70;84.40;;;;;;5290415;28;20106;-77
2021/12/02 12:19:52;;;;;;;7.35;2.72;;;15.40;85.40;;;;;;5290806;28;20107;-77
2021/12/02 12:22:30;;;;;;;14.93;2.60;;;15.80;87.30;;;;;;5290861;28;20486;-78
2021/12/02 12:25:06;;;;;;;6.90;2.90;;;15.80;86.90;;;;;;5290672;28;20020;-78
2021/12/02 12:27:39;;;;;;;5.00;2.28;;;15.80;85.80;;;;;;5290227;28;20035;-77
2021/12/02 12:30:11;;;;;;;5.35;2.10;;;15.00;91.80;;;;;;5290036;28;20020;-78
2021/12/02 12:38:22;;;;;;;12.95;6.35;;;15.30;90.90;;;;;;5275230;28;20026;-77
2021/12/02 12:40:57;;;;;;;6.20;3.50;;;15.20;91.40;;;;;;5290277;28;20054;-77
2021/12/02 12:43:37;;;;;;;18.23;6.68;;;15.30;89.60;;;;;;5290013;28;20378;-76
2021/12/02 12:46:11;;;;;;;20.67;10.07;;;14.90;95.90;;;;;;5274261;28;20020;-76
2021/12/02 12:48:43;;;;;;;55.17;30.83;;;14.70;94.90;;;;;;5290491;28;20043;-76
2021/12/02 12:51:20;;;;;;;84.35;46.40;;;15.10;95.90;;;;;;5288627;28;20051;-77
2021/12/02 12:53:53;;;;;;;8.98;2.83;;;14.60;98.80;;;;;;5289936;28;20073;-76
2021/12/02 12:56:37;;;;;;;30.40;14.57;;;14.70;99.90;;;;;;5267116;28;20066;-76
2021/12/02 12:59:18;;;;;;;40.55;18.95;;;14.30;99.90;;;;;;5289911;28;20062;-75
2021/12/02 13:02:00;;;;;;;11.57;6.18;;;15.10;99.90;;;;;;5271734;28;20059;-75
2021/12/02 13:04:48;;;;;;;11.20;3.65;;;14.90;98.30;;;;;;5289996;28;20377;-75
2021/12/02 13:07:20;;;;;;;24.73;10.27;;;14.90;99.90;;;;;;5289839;28;20074;-76
2021/12/02 13:10:09;;;;;;;18.77;7.78;;;14.60;97.30;;;;;;5290130;28;20050;-75
2021/12/02 13:12:52;;;;;;;32.42;13.27;;;14.70;98.20;;;;;;5290148;28;20443;-76
2021/12/02 13:15:27;;;;;;;24.80;10.35;;;14.90;97.20;;;;;;5276588;28;20474;-76
2021/12/02 13:18:02;;;;;;;26.58;13.43;;;14.40;98.00;;;;;;5288056;28;20112;-76
2021/12/02 13:20:40;;;;;;;66.35;26.25;;;14.30;99.90;;;;;;5277437;28;20024;-77
2021/12/02 13:23:17;;;;;;;40.15;14.07;;;14.60;97.20;;;;;;5289572;28;20572;-77
2021/12/02 13:25:51;;;;;;;23.52;7.95;;;14.30;97.60;;;;;;5289443;28;20019;-76
2021/12/02 13:28:29;;;;;;;37.17;18.27;;;14.20;99.60;;;;;;5289690;28;20048;-76